Time,TemperatureF,DewpointF,PressureIn,WindDirection,WindDirectionDegrees,WindSpeedMPH,WindSpeedGustMPH,Humidity,HourlyPrecipIn,Conditions,Clouds,dailyrainin,SoftwareType,DateUTC
2013-01-25 00:01:00,48.0,42.0,-100.00,East,96,5.0,8.0,81,-99.99,,,-99.99,,2013-01-25 08:01:00,
2013-01-25 00:11:00,48.0,42.0,-100.00,East,95,5.0,9.0,81,-99.99,,,-99.99,,2013-01-25 08:11:00,
2013-01-25 00:21:00,48.0,42.0,-100.00,East,99,6.0,11.0,81,-99.99,,,-99.99,,2013-01-25 08:21:00,
2013-01-25 00:32:00,48.0,42.0,-100.00,East,95,6.0,10.0,81,-99.99,,,-99.99,,2013-01-25 08:32:00,
2013-01-25 00:41:00,48.0,42.0,-100.00,East,92,6.0,10.0,81,-99.99,,,-99.99,,2013-01-25 08:41:00,
2013-01-25 00:52:00,48.0,42.0,-100.00,East,91,6.0,9.0,81,-99.99,,,-99.99,,2013-01-25 08:52:00,
2013-01-25 01:01:00,48.0,42.0,-100.00,East,98,7.0,13.0,81,-99.99,,,-99.99,,2013-01-25 09:01:00,
2013-01-25 01:11:00,48.0,42.0,-100.00,ESE,103,8.0,11.0,80,-99.99,,,-99.99,,2013-01-25 09:11:00,
2013-01-25 01:21:00,48.0,42.0,-100.00,ESE,103,7.0,10.0,80,-99.99,,,-99.99,,2013-01-25 09:21:00,
2013-01-25 01:31:00,48.0,42.0,-100.00,ESE,105,7.0,10.0,80,-99.99,,,-99.99,,2013-01-25 09:31:00,
2013-01-25 01:41:00,48.0,42.0,-100.00,ESE,102,8.0,11.0,79,-99.99,,,-99.99,,2013-01-25 09:41:00,
2013-01-25 01:51:00,48.0,41.0,-100.00,ESE,105,7.0,11.0,78,-99.99,,,-99.99,,2013-01-25 09:51:00,
2013-01-25 02:01:00,48.0,41.0,-100.00,ESE,103,7.0,11.0,78,-99.99,,,-99.99,,2013-01-25 10:01:00,
2013-01-25 02:11:00,48.0,41.0,-100.00,ESE,103,7.0,12.0,77,-99.99,,,-99.99,,2013-01-25 10:11:00,
2013-01-25 02:21:00,48.0,41.0,-100.00,East,101,7.0,9.0,76,-99.99,,,-99.99,,2013-01-25 10:21:00,
2013-01-25 02:31:00,48.0,41.0,-100.00,East,99,7.0,11.0,76,-99.99,,,-99.99,,2013-01-25 10:31:00,
2013-01-25 02:41:00,48.0,40.0,-100.00,East,100,6.0,9.0,75,-99.99,,,-99.99,,2013-01-25 10:41:00,
2013-01-25 02:51:00,48.0,42.0,-100.00,East,101,6.0,9.0,79,-99.99,,,-99.99,,2013-01-25 10:51:00,
2013-01-25 03:02:00,47.0,42.0,-100.00,East,101,6.0,10.0,82,-99.99,,,-99.99,,2013-01-25 11:02:00,
2013-01-25 03:11:00,47.0,42.0,-100.00,East,91,5.0,7.0,84,-99.99,,,-99.99,,2013-01-25 11:11:00,
2013-01-25 03:21:00,47.0,42.0,-100.00,East,101,5.0,9.0,84,-99.99,,,-99.99,,2013-01-25 11:21:00,
2013-01-25 03:32:00,47.0,42.0,-100.00,ESE,102,5.0,9.0,83,-99.99,,,-99.99,,2013-01-25 11:32:00,
2013-01-25 03:42:00,46.0,42.0,-100.00,ESE,113,5.0,9.0,85,-99.99,,,-99.99,,2013-01-25 11:42:00,
2013-01-25 03:52:00,46.0,41.0,-100.00,ESE,105,6.0,10.0,84,-99.99,,,-99.99,,2013-01-25 11:52:00,
2013-01-25 04:02:00,46.0,41.0,-100.00,ESE,105,6.0,10.0,84,-99.99,,,-99.99,,2013-01-25 12:02:00,
2013-01-25 04:11:00,46.0,41.0,-100.00,East,100,7.0,11.0,84,-99.99,,,-99.99,,2013-01-25 12:11:00,
2013-01-25 04:21:00,46.0,41.0,-100.00,ESE,106,6.0,11.0,84,-99.99,,,-99.99,,2013-01-25 12:21:00,
2013-01-25 04:32:00,46.0,41.0,-100.00,ESE,102,6.0,9.0,83,-99.99,,,-99.99,,2013-01-25 12:32:00,
2013-01-25 04:42:00,46.0,41.0,-100.00,East,99,6.0,9.0,83,-99.99,,,-99.99,,2013-01-25 12:42:00,
2013-01-25 04:52:00,46.0,41.0,-100.00,East,101,6.0,9.0,83,-99.99,,,-99.99,,2013-01-25 12:52:00,
2013-01-25 05:02:00,46.0,41.0,-100.00,East,99,5.0,10.0,84,-99.99,,,-99.99,,2013-01-25 13:02:00,
2013-01-25 05:11:00,46.0,42.0,-100.00,East,99,5.0,8.0,85,-99.99,,,-99.99,,2013-01-25 13:11:00,
2013-01-25 05:21:00,46.0,42.0,-100.00,East,93,4.0,8.0,85,-99.99,,,-99.99,,2013-01-25 13:21:00,
2013-01-25 05:32:00,46.0,42.0,-100.00,East,95,4.0,9.0,85,-99.99,,,-99.99,,2013-01-25 13:32:00,
2013-01-25 05:42:00,46.0,42.0,-100.00,ESE,107,5.0,8.0,85,-99.99,,,-99.99,,2013-01-25 13:42:00,
2013-01-25 05:52:00,46.0,42.0,-100.00,East,97,5.0,10.0,85,-99.99,,,-99.99,,2013-01-25 13:52:00,
2013-01-25 06:02:00,46.0,41.0,-100.00,East,101,5.0,7.0,84,-99.99,,,-99.99,,2013-01-25 14:02:00,
2013-01-25 06:12:00,46.0,42.0,-100.00,East,100,5.0,8.0,85,-99.99,,,-99.99,,2013-01-25 14:12:00,
2013-01-25 06:22:00,46.0,41.0,-100.00,East,90,5.0,7.0,83,-99.99,,,-99.99,,2013-01-25 14:22:00,
2013-01-25 06:32:00,46.0,41.0,-100.00,ENE,70,3.0,6.0,83,-99.99,,,-99.99,,2013-01-25 14:32:00,
2013-01-25 06:41:00,46.0,41.0,-100.00,ENE,66,4.0,8.0,84,-99.99,,,-99.99,,2013-01-25 14:41:00,
2013-01-25 06:52:00,46.0,42.0,-100.00,ENE,65,5.0,8.0,85,-99.99,,,-99.99,,2013-01-25 14:52:00,
2013-01-25 07:02:00,46.0,41.0,-100.00,ENE,71,4.0,7.0,83,-99.99,,,-99.99,,2013-01-25 15:02:00,
2013-01-25 07:11:00,46.0,41.0,-100.00,East,84,4.0,6.0,84,-99.99,,,-99.99,,2013-01-25 15:11:00,
2013-01-25 07:22:00,46.0,41.0,-100.00,East,91,7.0,11.0,82,-99.99,,,-99.99,,2013-01-25 15:22:00,
2013-01-25 07:32:00,46.0,41.0,-100.00,East,100,7.0,9.0,84,-99.99,,,-99.99,,2013-01-25 15:32:00,
2013-01-25 07:42:00,45.0,42.0,-100.00,East,101,7.0,11.0,88,-99.99,,,-99.99,,2013-01-25 15:42:00,
2013-01-25 07:52:00,45.0,42.0,-100.00,East,99,4.0,8.0,89,-99.99,,,-99.99,,2013-01-25 15:52:00,
2013-01-25 08:02:00,45.0,42.0,-100.00,East,98,3.0,5.0,90,-99.99,,,-99.99,,2013-01-25 16:02:00,
2013-01-25 08:11:00,45.0,42.0,-100.00,ESE,122,4.0,6.0,89,-99.99,,,-99.99,,2013-01-25 16:11:00,
2013-01-25 08:22:00,45.0,42.0,-100.00,ESE,105,4.0,7.0,90,-99.99,,,-99.99,,2013-01-25 16:22:00,
2013-01-25 08:32:00,45.0,43.0,-100.00,East,94,4.0,6.0,91,-99.99,,,-99.99,,2013-01-25 16:32:00,
2013-01-25 08:42:00,45.0,43.0,-100.00,East,79,3.0,5.0,91,-99.99,,,-99.99,,2013-01-25 16:42:00,
2013-01-25 08:52:00,45.0,43.0,-100.00,East,98,5.0,8.0,92,-99.99,,,-99.99,,2013-01-25 16:52:00,
2013-01-25 09:01:00,45.0,43.0,-100.00,ESE,102,5.0,7.0,92,-99.99,,,-99.99,,2013-01-25 17:01:00,
2013-01-25 09:11:00,45.0,43.0,-100.00,East,99,5.0,9.0,93,-99.99,,,-99.99,,2013-01-25 17:11:00,
2013-01-25 09:22:00,45.0,43.0,-100.00,East,86,4.0,8.0,93,-99.99,,,-99.99,,2013-01-25 17:22:00,
2013-01-25 09:32:00,45.0,43.0,-100.00,East,97,3.0,6.0,93,-99.99,,,-99.99,,2013-01-25 17:32:00,
2013-01-25 09:42:00,45.0,43.0,-100.00,ESE,109,5.0,8.0,94,-99.99,,,-99.99,,2013-01-25 17:42:00,
2013-01-25 09:52:00,45.0,43.0,-100.00,ESE,105,6.0,9.0,94,-99.99,,,-99.99,,2013-01-25 17:52:00,
2013-01-25 10:02:00,46.0,44.0,-100.00,East,99,5.0,8.0,93,-99.99,,,-99.99,,2013-01-25 18:02:00,
2013-01-25 10:11:00,46.0,44.0,-100.00,East,99,5.0,8.0,93,-99.99,,,-99.99,,2013-01-25 18:11:00,
2013-01-25 10:23:00,46.0,44.0,-100.00,East,88,5.0,8.0,92,-99.99,,,-99.99,,2013-01-25 18:23:00,
2013-01-25 10:32:00,46.0,44.0,-100.00,East,79,5.0,8.0,93,-99.99,,,-99.99,,2013-01-25 18:32:00,
2013-01-25 10:42:00,46.0,44.0,-100.00,East,81,6.0,9.0,92,-99.99,,,-99.99,,2013-01-25 18:42:00,
2013-01-25 10:52:00,46.0,44.0,-100.00,East,91,6.0,9.0,92,-99.99,,,-99.99,,2013-01-25 18:52:00,
2013-01-25 11:02:00,46.0,44.0,-100.00,NE,55,5.0,7.0,94,-99.99,,,-99.99,,2013-01-25 19:02:00,
2013-01-25 11:12:00,46.0,44.0,-100.00,NE,55,5.0,7.0,94,-99.99,,,-99.99,,2013-01-25 19:12:00,
2013-01-25 11:21:00,46.0,45.0,-100.00,ENE,66,6.0,10.0,95,-99.99,,,-99.99,,2013-01-25 19:21:00,
2013-01-25 11:32:00,46.0,45.0,-100.00,ENE,73,7.0,11.0,95,-99.99,,,-99.99,,2013-01-25 19:32:00,
2013-01-25 11:42:00,46.0,45.0,-100.00,East,81,8.0,11.0,95,-99.99,,,-99.99,,2013-01-25 19:42:00,
2013-01-25 11:52:00,46.0,45.0,-100.00,East,87,7.0,10.0,96,-99.99,,,-99.99,,2013-01-25 19:52:00,
2013-01-25 12:01:00,46.0,45.0,-100.00,East,85,6.0,11.0,96,-99.99,,,-99.99,,2013-01-25 20:01:00,
2013-01-25 12:11:00,46.0,45.0,-100.00,East,82,6.0,10.0,96,-99.99,,,-99.99,,2013-01-25 20:11:00,
2013-01-25 12:22:00,46.0,45.0,-100.00,East,85,6.0,9.0,96,-99.99,,,-99.99,,2013-01-25 20:22:00,
2013-01-25 12:32:00,46.0,45.0,-100.00,East,96,5.0,9.0,96,-99.99,,,-99.99,,2013-01-25 20:32:00,
2013-01-25 12:42:00,47.0,46.0,-100.00,East,92,6.0,10.0,96,-99.99,,,-99.99,,2013-01-25 20:42:00,
2013-01-25 12:52:00,47.0,46.0,-100.00,East,85,6.0,9.0,96,-99.99,,,-99.99,,2013-01-25 20:52:00,
2013-01-25 13:01:00,47.0,46.0,-100.00,East,87,7.0,11.0,96,-99.99,,,-99.99,,2013-01-25 21:01:00,
2013-01-25 13:11:00,47.0,46.0,-100.00,ENE,77,7.0,9.0,96,-99.99,,,-99.99,,2013-01-25 21:11:00,
2013-01-25 13:22:00,47.0,46.0,-100.00,East,85,7.0,12.0,96,-99.99,,,-99.99,,2013-01-25 21:22:00,
2013-01-25 13:32:00,47.0,46.0,-100.00,East,79,6.0,10.0,96,-99.99,,,-99.99,,2013-01-25 21:32:00,
2013-01-25 13:42:00,47.0,46.0,-100.00,East,93,5.0,9.0,96,-99.99,,,-99.99,,2013-01-25 21:42:00,
2013-01-25 13:51:00,47.0,46.0,-100.00,East,90,6.0,11.0,97,-99.99,,,-99.99,,2013-01-25 21:51:00,
2013-01-25 14:02:00,47.0,46.0,-100.00,East,89,6.0,11.0,97,-99.99,,,-99.99,,2013-01-25 22:02:00,
2013-01-25 14:11:00,47.0,46.0,-100.00,East,94,6.0,9.0,97,-99.99,,,-99.99,,2013-01-25 22:11:00,
2013-01-25 14:21:00,47.0,46.0,-100.00,East,88,5.0,8.0,97,-99.99,,,-99.99,,2013-01-25 22:21:00,
2013-01-25 14:32:00,47.0,46.0,-100.00,East,90,5.0,9.0,97,-99.99,,,-99.99,,2013-01-25 22:32:00,
2013-01-25 14:42:00,47.0,46.0,-100.00,ENE,78,5.0,8.0,97,-99.99,,,-99.99,,2013-01-25 22:42:00,
2013-01-25 14:51:00,47.0,46.0,-100.00,ENE,74,5.0,8.0,97,-99.99,,,-99.99,,2013-01-25 22:51:00,
2013-01-25 15:01:00,47.0,46.0,-100.00,ENE,77,4.0,6.0,97,-99.99,,,-99.99,,2013-01-25 23:01:00,
2013-01-25 15:11:00,47.0,46.0,-100.00,ENE,78,3.0,7.0,97,-99.99,,,-99.99,,2013-01-25 23:11:00,
2013-01-25 15:22:00,47.0,46.0,-100.00,NE,45,3.0,5.0,97,-99.99,,,-99.99,,2013-01-25 23:22:00,
2013-01-25 15:31:00,47.0,46.0,-100.00,NE,38,3.0,5.0,97,-99.99,,,-99.99,,2013-01-25 23:31:00,
2013-01-25 15:42:00,47.0,46.0,-100.00,ENE,67,5.0,7.0,97,-99.99,,,-99.99,,2013-01-25 23:42:00,
2013-01-25 15:52:00,47.0,46.0,-100.00,East,96,4.0,6.0,97,-99.99,,,-99.99,,2013-01-25 23:52:00,
2013-01-25 16:01:00,47.0,46.0,-100.00,East,90,6.0,9.0,97,-99.99,,,-99.99,,2013-01-26 00:01:00,
2013-01-25 16:11:00,47.0,46.0,-100.00,East,87,5.0,9.0,97,-99.99,,,-99.99,,2013-01-26 00:11:00,
2013-01-25 16:22:00,47.0,46.0,-100.00,East,89,6.0,9.0,97,-99.99,,,-99.99,,2013-01-26 00:22:00,
2013-01-25 16:32:00,47.0,46.0,-100.00,East,101,5.0,9.0,97,-99.99,,,-99.99,,2013-01-26 00:32:00,
2013-01-25 16:41:00,47.0,46.0,-100.00,ESE,107,5.0,8.0,97,-99.99,,,-99.99,,2013-01-26 00:41:00,
2013-01-25 16:52:00,47.0,46.0,-100.00,East,97,5.0,9.0,97,-99.99,,,-99.99,,2013-01-26 00:52:00,
2013-01-25 17:01:00,47.0,46.0,-100.00,East,100,6.0,8.0,97,-99.99,,,-99.99,,2013-01-26 01:01:00,
2013-01-25 17:11:00,47.0,46.0,-100.00,East,97,6.0,10.0,97,-99.99,,,-99.99,,2013-01-26 01:11:00,
2013-01-25 17:22:00,47.0,46.0,-100.00,East,97,6.0,9.0,97,-99.99,,,-99.99,,2013-01-26 01:22:00,
2013-01-25 17:31:00,47.0,46.0,-100.00,East,95,5.0,8.0,97,-99.99,,,-99.99,,2013-01-26 01:31:00,
2013-01-25 17:42:00,47.0,46.0,-100.00,East,84,5.0,8.0,97,-99.99,,,-99.99,,2013-01-26 01:42:00,
2013-01-25 17:52:00,47.0,46.0,-100.00,East,91,4.0,8.0,97,-99.99,,,-99.99,,2013-01-26 01:52:00,
2013-01-25 18:01:00,46.0,45.0,-100.00,ESE,102,3.0,6.0,97,-99.99,,,-99.99,,2013-01-26 02:01:00,
2013-01-25 18:11:00,46.0,45.0,-100.00,ENE,70,4.0,7.0,97,-99.99,,,-99.99,,2013-01-26 02:11:00,
2013-01-25 18:22:00,46.0,45.0,-100.00,ENE,68,4.0,7.0,97,-99.99,,,-99.99,,2013-01-26 02:22:00,
2013-01-25 18:32:00,46.0,45.0,-100.00,ENE,69,4.0,6.0,97,-99.99,,,-99.99,,2013-01-26 02:32:00,
2013-01-25 18:42:00,46.0,45.0,-100.00,East,83,4.0,7.0,97,-99.99,,,-99.99,,2013-01-26 02:42:00,
2013-01-25 18:52:00,46.0,45.0,-100.00,East,83,5.0,8.0,97,-99.99,,,-99.99,,2013-01-26 02:52:00,
2013-01-25 19:01:00,46.0,45.0,-100.00,East,86,4.0,7.0,97,-99.99,,,-99.99,,2013-01-26 03:01:00,
2013-01-25 19:11:00,46.0,45.0,-100.00,ENE,72,4.0,7.0,97,-99.99,,,-99.99,,2013-01-26 03:11:00,
2013-01-25 19:21:00,46.0,45.0,-100.00,East,93,5.0,8.0,97,-99.99,,,-99.99,,2013-01-26 03:21:00,
2013-01-25 19:31:00,46.0,45.0,-100.00,East,95,5.0,9.0,97,-99.99,,,-99.99,,2013-01-26 03:31:00,
2013-01-25 19:42:00,46.0,45.0,-100.00,East,96,6.0,9.0,97,-99.99,,,-99.99,,2013-01-26 03:42:00,
2013-01-25 19:51:00,46.0,45.0,-100.00,East,90,5.0,12.0,97,-99.99,,,-99.99,,2013-01-26 03:51:00,
2013-01-25 20:01:00,46.0,45.0,-100.00,East,98,7.0,11.0,97,-99.99,,,-99.99,,2013-01-26 04:01:00,
2013-01-25 20:12:00,46.0,45.0,-100.00,East,96,6.0,10.0,97,-99.99,,,-99.99,,2013-01-26 04:12:00,
2013-01-25 20:21:00,46.0,45.0,-100.00,East,100,8.0,11.0,97,-99.99,,,-99.99,,2013-01-26 04:21:00,
2013-01-25 20:32:00,46.0,45.0,-100.00,East,100,7.0,11.0,97,-99.99,,,-99.99,,2013-01-26 04:32:00,
2013-01-25 20:42:00,46.0,45.0,-100.00,East,100,7.0,11.0,97,-99.99,,,-99.99,,2013-01-26 04:42:00,
2013-01-25 20:52:00,46.0,45.0,-100.00,East,100,7.0,13.0,98,-99.99,,,-99.99,,2013-01-26 04:52:00,
2013-01-25 21:02:00,46.0,45.0,-100.00,East,96,7.0,9.0,98,-99.99,,,-99.99,,2013-01-26 05:02:00,
2013-01-25 21:12:00,46.0,45.0,-100.00,East,94,5.0,8.0,98,-99.99,,,-99.99,,2013-01-26 05:12:00,
2013-01-25 21:22:00,46.0,45.0,-100.00,East,92,4.0,7.0,98,-99.99,,,-99.99,,2013-01-26 05:22:00,
2013-01-25 21:33:00,46.0,45.0,-100.00,East,83,3.0,6.0,98,-99.99,,,-99.99,,2013-01-26 05:33:00,
2013-01-25 21:41:00,46.0,45.0,-100.00,ESE,103,2.0,4.0,98,-99.99,,,-99.99,,2013-01-26 05:41:00,
2013-01-25 21:52:00,46.0,45.0,-100.00,ESE,102,4.0,6.0,98,-99.99,,,-99.99,,2013-01-26 05:52:00,
2013-01-25 22:02:00,46.0,45.0,-100.00,East,98,3.0,5.0,98,-99.99,,,-99.99,,2013-01-26 06:02:00,
2013-01-25 22:11:00,46.0,45.0,-100.00,ESE,114,3.0,6.0,98,-99.99,,,-99.99,,2013-01-26 06:11:00,
2013-01-25 22:21:00,46.0,45.0,-100.00,ESE,119,3.0,5.0,98,-99.99,,,-99.99,,2013-01-26 06:21:00,
2013-01-25 22:31:00,46.0,45.0,-100.00,ESE,103,3.0,5.0,98,-99.99,,,-99.99,,2013-01-26 06:31:00,
2013-01-25 22:41:00,46.0,45.0,-100.00,ESE,106,3.0,5.0,98,-99.99,,,-99.99,,2013-01-26 06:41:00,
2013-01-25 22:51:00,46.0,45.0,-100.00,East,99,2.0,3.0,98,-99.99,,,-99.99,,2013-01-26 06:51:00,
2013-01-25 23:01:00,46.0,45.0,-100.00,ENE,65,1.0,2.0,98,-99.99,,,-99.99,,2013-01-26 07:01:00,
2013-01-25 23:11:00,46.0,45.0,-100.00,NE,55,1.0,2.0,98,-99.99,,,-99.99,,2013-01-26 07:11:00,
2013-01-25 23:21:00,46.0,45.0,-100.00,ESE,102,1.0,2.0,98,-99.99,,,-99.99,,2013-01-26 07:21:00,
2013-01-25 23:33:00,46.0,45.0,-100.00,ESE,119,1.0,2.0,98,-99.99,,,-99.99,,2013-01-26 07:33:00,
2013-01-25 23:41:00,46.0,45.0,-100.00,East,93,1.0,1.0,98,-99.99,,,-99.99,,2013-01-26 07:41:00,
2013-01-25 23:51:00,46.0,45.0,-100.00,East,83,1.0,2.0,98,-99.99,,,-99.99,,2013-01-26 07:51:00,